createdAt,value
2023-02-12T00:02:21.841Z,2.30
2023-02-12T00:04:53.625Z,2.30
2023-02-12T00:07:25.456Z,2.30
2023-02-12T00:09:57.106Z,2.30
2023-02-12T00:12:28.784Z,2.30
2023-02-12T00:15:00.443Z,2.30
2023-02-12T00:17:32.158Z,2.30
2023-02-12T00:20:04.873Z,2.30
2023-02-12T00:22:36.579Z,2.30
2023-02-12T00:25:08.536Z,2.30
2023-02-12T00:27:40.240Z,2.30
2023-02-12T00:30:12.504Z,2.30
2023-02-12T00:32:45.916Z,2.30
2023-02-12T00:35:17.941Z,2.20
2023-02-12T00:37:49.671Z,2.20
2023-02-12T00:40:21.434Z,2.20
2023-02-12T00:42:53.291Z,2.20
2023-02-12T00:45:25.069Z,2.20
2023-02-12T00:47:56.796Z,2.20
2023-02-12T00:50:30.759Z,2.20
2023-02-12T00:53:05.390Z,2.20
2023-02-12T00:55:37.270Z,2.20
2023-02-12T00:58:09.804Z,2.20
2023-02-12T01:00:41.504Z,2.20
2023-02-12T01:03:13.624Z,2.20
2023-02-12T01:05:45.334Z,2.10
2023-02-12T01:08:17.497Z,2.20
2023-02-12T01:10:59.313Z,2.20
2023-02-12T01:13:32.228Z,2.20
2023-02-12T01:16:17.567Z,2.20
2023-02-12T01:18:51.431Z,2.20
2023-02-12T01:21:30.508Z,2.20
2023-02-12T01:24:02.592Z,2.20
2023-02-12T01:26:35.623Z,2.20
2023-02-12T01:29:08.019Z,2.20
2023-02-12T01:31:40.496Z,2.20
2023-02-12T01:34:12.386Z,2.20
2023-02-12T01:36:44.156Z,2.20
2023-02-12T01:39:16.007Z,2.30
2023-02-12T01:41:47.675Z,2.30
2023-02-12T01:44:26.003Z,2.30
2023-02-12T01:47:00.710Z,2.30
2023-02-12T01:49:42.500Z,2.30
2023-02-12T01:52:30.243Z,2.30
2023-02-12T01:55:06.674Z,2.30
2023-02-12T01:57:42.488Z,2.30
2023-02-12T02:00:17.607Z,2.30
2023-02-12T02:02:57.219Z,2.30
2023-02-12T02:05:48.003Z,2.30
2023-02-12T02:08:19.732Z,2.30
2023-02-12T02:10:51.809Z,2.30
2023-02-12T02:13:42.015Z,2.30
2023-02-12T02:16:23.907Z,2.30
2023-02-12T02:19:27.877Z,2.30
2023-02-12T02:22:21.682Z,2.30
2023-02-12T02:25:15.753Z,2.30
2023-02-12T02:28:03.737Z,2.30
2023-02-12T02:30:45.591Z,2.30
2023-02-12T02:33:40.323Z,2.30
2023-02-12T02:36:33.923Z,2.30
2023-02-12T02:39:38.903Z,2.30
2023-02-12T02:42:24.996Z,2.30
2023-02-12T02:45:14.690Z,2.30
2023-02-12T02:47:54.078Z,2.30
2023-02-12T02:50:29.457Z,2.30
2023-02-12T02:53:22.508Z,2.30
2023-02-12T02:55:58.517Z,2.30
2023-02-12T02:58:38.937Z,2.30
2023-02-12T03:01:21.419Z,2.30
2023-02-12T03:04:01.744Z,2.30
2023-02-12T03:06:40.624Z,2.30
2023-02-12T03:09:20.805Z,2.30
2023-02-12T03:11:57.230Z,2.20
2023-02-12T03:14:38.279Z,2.20
2023-02-12T03:17:26.803Z,2.20
2023-02-12T03:20:12.247Z,2.30
2023-02-12T03:22:51.397Z,2.20
2023-02-12T03:25:35.057Z,2.20
2023-02-12T03:28:14.276Z,2.20
2023-02-12T03:30:50.602Z,2.20
2023-02-12T03:33:50.889Z,2.10
2023-02-12T03:36:34.665Z,2.10
2023-02-12T03:39:43.476Z,2.10
2023-02-12T03:42:38.344Z,2.10
2023-02-12T03:45:28.124Z,2.10
2023-02-12T03:48:38.547Z,2.10
2023-02-12T03:51:38.214Z,2.10
2023-02-12T03:54:12.423Z,2.10
2023-02-12T03:56:56.820Z,2.00
2023-02-12T03:59:29.313Z,2.10
2023-02-12T04:02:01.202Z,2.10
2023-02-12T04:04:33.650Z,2.10
2023-02-12T04:07:05.660Z,2.10
2023-02-12T04:09:37.401Z,2.10
2023-02-12T04:12:52.257Z,2.10
2023-02-12T04:15:43.801Z,2.10
2023-02-12T04:18:20.844Z,2.10
2023-02-12T04:21:21.004Z,2.10
2023-02-12T04:24:20.673Z,2.10
2023-02-12T04:27:07.525Z,2.10
2023-02-12T04:29:42.192Z,2.10
2023-02-12T04:32:38.480Z,2.10
2023-02-12T04:35:25.002Z,2.10
2023-02-12T04:38:09.379Z,2.20
2023-02-12T04:40:42.494Z,2.10
2023-02-12T04:43:14.246Z,2.20
2023-02-12T04:45:45.970Z,2.20
2023-02-12T04:48:17.928Z,2.20
2023-02-12T04:50:49.850Z,2.20
2023-02-12T04:53:21.760Z,2.20
2023-02-12T04:55:53.830Z,2.20
2023-02-12T04:58:25.722Z,2.20
2023-02-12T05:00:59.579Z,2.20
2023-02-12T05:03:31.300Z,2.10
2023-02-12T05:06:07.741Z,2.10
2023-02-12T05:08:39.524Z,2.20
2023-02-12T05:11:11.858Z,2.10
2023-02-12T05:13:43.571Z,2.10
2023-02-12T05:16:15.612Z,2.10
2023-02-12T05:18:47.586Z,2.10
2023-02-12T05:21:19.297Z,2.20
2023-02-12T05:23:51.000Z,2.20
2023-02-12T05:26:23.087Z,2.20
2023-02-12T05:28:54.859Z,2.20
2023-02-12T05:31:27.125Z,2.20
2023-02-12T05:33:58.946Z,2.10
2023-02-12T05:36:30.743Z,2.10
2023-02-12T05:39:02.467Z,2.10
2023-02-12T05:41:35.673Z,2.10
2023-02-12T05:44:07.624Z,2.10
2023-02-12T05:46:39.674Z,2.10
2023-02-12T05:49:11.687Z,2.10
2023-02-12T05:51:43.462Z,2.20
2023-02-12T05:54:15.199Z,2.20
2023-02-12T05:56:48.011Z,2.20
2023-02-12T05:59:22.849Z,2.20
2023-02-12T06:01:54.776Z,2.20
2023-02-12T06:04:28.799Z,2.20
2023-02-12T06:07:00.863Z,2.20
2023-02-12T06:09:32.840Z,2.20
2023-02-12T06:12:04.975Z,2.20
2023-02-12T06:14:36.764Z,2.10
2023-02-12T06:17:08.749Z,2.20
2023-02-12T06:19:40.469Z,2.10
2023-02-12T06:22:12.312Z,2.10
2023-02-12T06:24:44.039Z,2.10
2023-02-12T06:27:15.742Z,2.10
2023-02-12T06:29:47.458Z,2.10
2023-02-12T06:32:19.315Z,2.20
2023-02-12T06:34:51.138Z,2.20
2023-02-12T06:37:22.845Z,2.20
2023-02-12T06:39:54.561Z,2.20
2023-02-12T06:42:26.258Z,2.20
2023-02-12T06:44:57.955Z,2.20
2023-02-12T06:47:29.684Z,2.20
2023-02-12T06:50:01.596Z,2.20
2023-02-12T06:52:33.335Z,2.20
2023-02-12T06:55:05.218Z,2.20
2023-02-12T06:57:36.989Z,2.20
2023-02-12T07:00:09.451Z,2.20
2023-02-12T07:02:41.381Z,2.20
2023-02-12T07:05:13.200Z,2.20
2023-02-12T07:07:44.905Z,2.20
2023-02-12T07:10:17.633Z,2.20
2023-02-12T07:12:49.340Z,2.20
2023-02-12T07:15:21.047Z,2.20
2023-02-12T07:17:52.829Z,2.30
2023-02-12T07:20:24.555Z,2.30
2023-02-12T07:22:56.325Z,2.40
2023-02-12T07:25:28.039Z,2.30
2023-02-12T07:28:00.150Z,2.30
2023-02-12T07:30:32.017Z,2.30
2023-02-12T07:33:04.019Z,2.30
2023-02-12T07:35:35.735Z,2.40
2023-02-12T07:38:07.424Z,2.30
2023-02-12T07:40:39.152Z,2.40
2023-02-12T07:43:10.854Z,2.40
2023-02-12T07:45:44.815Z,2.50
2023-02-12T07:48:16.552Z,2.40
2023-02-12T07:50:48.268Z,2.50
2023-02-12T07:53:19.963Z,2.60
2023-02-12T07:55:51.702Z,2.60
2023-02-12T07:58:23.413Z,2.70
2023-02-12T08:00:55.116Z,2.70
2023-02-12T08:03:28.520Z,2.90
2023-02-12T08:06:00.261Z,2.90
2023-02-12T08:08:32.022Z,3.00
2023-02-12T08:11:03.817Z,3.00
2023-02-12T08:13:37.367Z,3.00
2023-02-12T08:16:15.629Z,3.10
2023-02-12T08:18:47.939Z,3.10
2023-02-12T08:21:25.492Z,3.20
2023-02-12T08:23:58.547Z,3.20
2023-02-12T08:26:33.390Z,3.30
2023-02-12T08:29:17.423Z,3.30
2023-02-12T08:31:50.575Z,3.40
2023-02-12T08:34:27.727Z,3.40
2023-02-12T08:37:00.300Z,3.50
2023-02-12T08:39:32.272Z,3.60
2023-02-12T08:42:04.074Z,3.60
2023-02-12T08:44:36.746Z,3.70
2023-02-12T08:47:10.005Z,3.80
2023-02-12T08:49:41.840Z,3.80
2023-02-12T08:52:13.551Z,3.90
2023-02-12T08:54:45.289Z,3.90
2023-02-12T08:57:17.001Z,4.00
2023-02-12T08:59:49.334Z,4.00
2023-02-12T09:02:21.094Z,4.10
2023-02-12T09:04:53.046Z,4.10
2023-02-12T09:07:24.785Z,4.20
2023-02-12T09:09:56.475Z,4.20
2023-02-12T09:12:28.173Z,4.30
2023-02-12T09:15:00.133Z,4.40
2023-02-12T09:17:31.925Z,4.50
2023-02-12T09:20:03.761Z,4.50
2023-02-12T09:22:38.106Z,4.60
2023-02-12T09:25:09.888Z,4.70
2023-02-12T09:27:41.604Z,4.70
2023-02-12T09:30:13.873Z,4.80
2023-02-12T09:32:45.657Z,4.80
2023-02-12T09:35:18.542Z,4.80
2023-02-12T09:37:51.973Z,4.90
2023-02-12T09:40:58.550Z,4.90
2023-02-12T09:43:43.577Z,5.00
2023-02-12T09:46:30.262Z,5.00
2023-02-12T09:49:04.835Z,5.00
2023-02-12T09:51:42.337Z,5.10
2023-02-12T09:54:16.984Z,5.10
2023-02-12T09:57:01.273Z,5.40
2023-02-12T09:59:37.915Z,5.20
2023-02-12T10:02:21.696Z,5.30
2023-02-12T10:05:01.517Z,5.40
2023-02-12T10:07:51.316Z,5.50
2023-02-12T10:10:29.146Z,5.60
2023-02-12T10:13:20.644Z,5.70
2023-02-12T10:16:19.305Z,5.70
2023-02-12T10:18:57.581Z,5.70
2023-02-12T10:21:50.927Z,5.80
2023-02-12T10:24:47.163Z,5.80
2023-02-12T10:27:42.097Z,6.00
2023-02-12T10:30:19.758Z,6.10
2023-02-12T10:32:58.571Z,6.10
2023-02-12T10:35:31.096Z,6.20
2023-02-12T10:38:19.840Z,6.30
2023-02-12T10:40:51.632Z,6.30
2023-02-12T10:43:24.351Z,6.40
2023-02-12T10:45:57.346Z,6.40
2023-02-12T10:48:37.718Z,6.50
2023-02-12T10:51:09.370Z,6.60
2023-02-12T10:53:43.341Z,6.70
2023-02-12T10:56:20.036Z,6.70
2023-02-12T10:58:59.249Z,6.80
2023-02-12T11:01:37.165Z,6.90
2023-02-12T11:04:23.851Z,7.00
2023-02-12T11:06:59.760Z,7.00
2023-02-12T11:09:48.259Z,7.10
2023-02-12T11:12:26.180Z,7.10
2023-02-12T11:15:04.307Z,7.00
2023-02-12T11:17:40.768Z,7.20
2023-02-12T11:20:18.479Z,9.00
2023-02-12T11:22:51.186Z,7.30
2023-02-12T11:25:25.866Z,7.40
2023-02-12T11:28:18.010Z,7.40
2023-02-12T11:30:51.071Z,7.50
2023-02-12T11:33:32.776Z,7.60
2023-02-12T11:36:24.529Z,7.60
2023-02-12T11:38:58.900Z,7.70
2023-02-12T11:41:36.742Z,7.70
2023-02-12T11:44:13.137Z,7.70
2023-02-12T11:46:58.922Z,7.60
2023-02-12T11:49:33.889Z,7.60
2023-02-12T11:52:06.724Z,7.60
2023-02-12T11:54:46.312Z,7.50
2023-02-12T11:57:39.794Z,7.50
2023-02-12T12:00:33.300Z,7.50
2023-02-12T12:03:30.350Z,7.60
2023-02-12T12:06:36.173Z,7.60
2023-02-12T12:09:25.055Z,7.60
2023-02-12T12:11:56.719Z,7.70
2023-02-12T12:15:06.818Z,7.70
2023-02-12T12:18:06.920Z,7.70
2023-02-12T12:21:09.821Z,7.70
2023-02-12T12:23:49.816Z,7.60
2023-02-12T12:26:27.510Z,7.40
2023-02-12T12:29:30.956Z,7.40
2023-02-12T12:32:05.112Z,7.40
2023-02-12T12:34:36.912Z,7.40
2023-02-12T12:37:31.139Z,7.50
2023-02-12T12:40:05.693Z,7.70
2023-02-12T12:42:55.472Z,7.90
2023-02-12T12:45:50.233Z,8.20
2023-02-12T12:48:45.088Z,8.40
2023-02-12T12:51:36.033Z,8.50
2023-02-12T12:54:37.364Z,8.50
2023-02-12T12:57:27.579Z,8.40
2023-02-12T13:00:01.980Z,8.30
2023-02-12T13:03:16.802Z,8.20
2023-02-12T13:06:15.910Z,8.20
2023-02-12T13:08:56.548Z,8.50
2023-02-12T13:12:00.867Z,8.70
2023-02-12T13:15:01.941Z,8.80
2023-02-12T13:18:01.494Z,8.70
2023-02-12T13:20:47.591Z,8.70
2023-02-12T13:23:25.153Z,8.50
2023-02-12T13:26:14.971Z,8.50
2023-02-12T13:28:52.596Z,8.40
2023-02-12T13:31:33.673Z,8.40
2023-02-12T13:34:11.079Z,8.50
2023-02-12T13:36:43.744Z,8.50
2023-02-12T13:39:25.073Z,8.60
2023-02-12T13:42:06.781Z,8.50
2023-02-12T13:45:11.157Z,8.50
2023-02-12T13:48:11.818Z,8.60
2023-02-12T13:51:08.739Z,8.60
2023-02-12T13:53:47.639Z,8.60
2023-02-12T13:56:28.324Z,8.60
2023-02-12T13:59:00.939Z,8.60
2023-02-12T14:01:47.527Z,8.50
2023-02-12T14:04:19.516Z,8.60
2023-02-12T14:07:10.128Z,8.60
2023-02-12T14:10:00.760Z,8.60
2023-02-12T14:12:36.754Z,8.60
2023-02-12T14:15:37.582Z,8.80
2023-02-12T14:18:31.836Z,8.90
2023-02-12T14:21:10.147Z,8.80
2023-02-12T14:23:46.042Z,8.80
2023-02-12T14:26:20.249Z,8.80
2023-02-12T14:29:02.999Z,8.70
2023-02-12T14:31:36.938Z,8.70
2023-02-12T14:34:08.669Z,8.60
2023-02-12T14:36:43.828Z,8.60
2023-02-12T14:39:24.544Z,8.60
2023-02-12T14:42:16.184Z,8.50
2023-02-12T14:44:56.325Z,8.40
2023-02-12T14:47:31.119Z,8.40
2023-02-12T14:50:11.950Z,8.30
2023-02-12T14:52:51.698Z,8.30
2023-02-12T14:55:27.173Z,8.20
2023-02-12T14:58:02.061Z,8.20
2023-02-12T15:00:40.276Z,8.10
2023-02-12T15:03:15.158Z,8.10
2023-02-12T15:06:05.688Z,8.00
2023-02-12T15:08:44.481Z,8.00
2023-02-12T15:11:38.615Z,8.00
2023-02-12T15:14:16.918Z,8.00
2023-02-12T15:16:59.825Z,7.90
2023-02-12T15:19:47.122Z,7.90
2023-02-12T15:22:31.255Z,7.90
2023-02-12T15:25:27.225Z,7.90
2023-02-12T15:28:02.627Z,7.90
2023-02-12T15:30:36.760Z,7.80
2023-02-12T15:33:09.672Z,7.80
2023-02-12T15:35:44.734Z,7.80
2023-02-12T15:38:29.907Z,7.70
2023-02-12T15:41:02.963Z,7.70
2023-02-12T15:43:40.141Z,7.60
2023-02-12T15:46:18.088Z,7.60
2023-02-12T15:48:49.945Z,7.50
2023-02-12T15:51:34.781Z,7.50
2023-02-12T15:54:07.682Z,7.40
2023-02-12T15:56:41.468Z,7.30
2023-02-12T15:59:21.990Z,7.30
2023-02-12T16:02:00.828Z,7.20
2023-02-12T16:04:37.275Z,7.20
2023-02-12T16:07:12.621Z,5.70
2023-02-12T16:09:45.445Z,7.10
2023-02-12T16:12:21.514Z,7.00
2023-02-12T16:15:00.446Z,7.00
2023-02-12T16:17:37.030Z,6.90
2023-02-12T16:20:20.404Z,6.90
2023-02-12T16:22:52.670Z,6.80
2023-02-12T16:25:30.197Z,6.70
2023-02-12T16:28:06.585Z,6.70
2023-02-12T16:30:42.662Z,6.60
2023-02-12T16:33:40.091Z,6.30
2023-02-12T16:36:12.012Z,6.50
2023-02-12T16:38:46.716Z,6.40
2023-02-12T16:41:18.379Z,6.30
2023-02-12T16:43:54.627Z,6.20
2023-02-12T16:46:27.912Z,6.20
2023-02-12T16:49:01.594Z,6.10
2023-02-12T16:51:36.172Z,6.00
2023-02-12T16:54:33.099Z,5.80
2023-02-12T16:57:04.803Z,5.70
2023-02-12T16:59:43.317Z,5.70
2023-02-12T17:02:16.004Z,5.60
2023-02-12T17:04:47.736Z,5.50
2023-02-12T17:07:25.667Z,5.40
2023-02-12T17:09:57.806Z,4.90
2023-02-12T17:12:30.820Z,5.20
2023-02-12T17:15:05.698Z,5.10
2023-02-12T17:17:37.383Z,5.10
2023-02-12T17:20:09.460Z,4.90
2023-02-12T17:22:48.698Z,4.90
2023-02-12T17:25:20.933Z,4.90
2023-02-12T17:27:52.633Z,4.80
2023-02-12T17:30:24.375Z,4.70
2023-02-12T17:32:56.104Z,4.70
2023-02-12T17:35:27.790Z,4.70
2023-02-12T17:37:59.829Z,4.60
2023-02-12T17:40:31.626Z,4.50
2023-02-12T17:43:04.765Z,4.50
2023-02-12T17:45:42.832Z,4.40
2023-02-12T17:48:16.405Z,4.40
2023-02-12T17:50:54.132Z,4.30
2023-02-12T17:53:25.904Z,4.20
2023-02-12T17:55:57.630Z,4.10
2023-02-12T17:58:29.392Z,4.10
2023-02-12T18:01:05.408Z,4.00
2023-02-12T18:03:37.383Z,4.00
2023-02-12T18:06:10.997Z,3.90
2023-02-12T18:08:43.254Z,3.90
2023-02-12T18:11:14.932Z,3.90
2023-02-12T18:13:47.281Z,3.80
2023-02-12T18:16:19.375Z,3.80
2023-02-12T18:18:51.253Z,3.70
2023-02-12T18:21:23.161Z,3.70
2023-02-12T18:23:54.917Z,3.70
2023-02-12T18:26:26.626Z,3.60
2023-02-12T18:28:59.860Z,3.60
2023-02-12T18:31:32.080Z,3.60
2023-02-12T18:34:07.562Z,3.60
2023-02-12T18:36:39.551Z,3.50
2023-02-12T18:39:11.473Z,3.50
2023-02-12T18:41:43.221Z,3.50
2023-02-12T18:44:15.535Z,3.50
2023-02-12T18:46:47.241Z,3.40
2023-02-12T18:49:18.940Z,3.40
2023-02-12T18:51:50.639Z,3.40
2023-02-12T18:54:22.662Z,3.30
2023-02-12T18:56:54.452Z,3.20
2023-02-12T18:59:27.389Z,3.20
2023-02-12T19:01:59.339Z,3.20
2023-02-12T19:04:31.412Z,3.10
2023-02-12T19:07:03.142Z,3.10
2023-02-12T19:09:35.104Z,3.10
2023-02-12T19:12:07.162Z,3.10
2023-02-12T19:14:39.035Z,3.10
2023-02-12T19:17:10.723Z,3.00
2023-02-12T19:19:42.458Z,3.10
2023-02-12T19:22:14.244Z,3.10
2023-02-12T19:24:47.258Z,3.10
2023-02-12T19:27:19.067Z,3.10
2023-02-12T19:29:50.754Z,3.10
2023-02-12T19:32:22.552Z,3.10
2023-02-12T19:34:54.618Z,3.00
2023-02-12T19:37:26.399Z,3.00
2023-02-12T19:39:58.126Z,3.00
2023-02-12T19:42:30.722Z,2.90
2023-02-12T19:45:02.417Z,2.90
2023-02-12T19:47:34.150Z,2.90
2023-02-12T19:50:06.627Z,2.80
2023-02-12T19:52:38.599Z,2.80
2023-02-12T19:55:10.329Z,2.80
2023-02-12T19:57:42.812Z,2.80
2023-02-12T20:00:14.939Z,2.80
2023-02-12T20:02:47.803Z,2.90
2023-02-12T20:05:19.554Z,2.90
2023-02-12T20:07:51.348Z,2.90
2023-02-12T20:10:23.209Z,2.90
2023-02-12T20:12:54.886Z,2.90
2023-02-12T20:15:26.640Z,2.90
2023-02-12T20:17:59.433Z,2.90
2023-02-12T20:20:32.089Z,3.00
2023-02-12T20:23:03.848Z,3.00
2023-02-12T20:25:41.667Z,3.00
2023-02-12T20:28:13.661Z,3.00
2023-02-12T20:30:46.795Z,3.00
2023-02-12T20:33:18.495Z,1.50
2023-02-12T20:35:57.086Z,4.10
2023-02-12T20:38:28.872Z,3.00
2023-02-12T20:41:02.392Z,3.10
2023-02-12T20:43:34.692Z,3.00
2023-02-12T20:46:12.083Z,3.00
2023-02-12T20:48:44.255Z,3.00
2023-02-12T20:51:18.215Z,3.10
2023-02-12T20:53:50.886Z,3.10
2023-02-12T20:56:29.649Z,3.10
2023-02-12T20:59:01.983Z,3.10
2023-02-12T21:01:37.052Z,3.10
2023-02-12T21:04:11.474Z,3.10
2023-02-12T21:06:43.567Z,3.10
2023-02-12T21:09:15.768Z,3.10
2023-02-12T21:11:48.013Z,3.00
2023-02-12T21:14:23.164Z,3.00
2023-02-12T21:16:56.423Z,3.00
2023-02-12T21:19:28.815Z,3.00
2023-02-12T21:22:00.570Z,3.00
2023-02-12T21:24:33.849Z,3.00
2023-02-12T21:27:05.740Z,3.00
2023-02-12T21:29:37.652Z,3.00
2023-02-12T21:32:09.436Z,3.00
2023-02-12T21:34:41.229Z,3.00
2023-02-12T21:37:12.935Z,3.00
2023-02-12T21:39:44.816Z,3.00
2023-02-12T21:42:16.506Z,3.00
2023-02-12T21:44:48.224Z,3.00
2023-02-12T21:47:19.951Z,3.00
2023-02-12T21:49:52.134Z,3.00
2023-02-12T21:52:23.875Z,3.00
2023-02-12T21:54:57.046Z,3.00
2023-02-12T21:57:28.787Z,3.00
2023-02-12T22:00:00.530Z,3.00
2023-02-12T22:02:32.293Z,3.00
2023-02-12T22:05:04.066Z,3.00
2023-02-12T22:07:35.773Z,3.00
2023-02-12T22:10:09.298Z,2.90
2023-02-12T22:12:41.054Z,3.00
2023-02-12T22:15:12.804Z,3.10
2023-02-12T22:17:44.534Z,3.20
2023-02-12T22:20:16.434Z,3.20
2023-02-12T22:22:48.527Z,3.30
2023-02-12T22:25:20.532Z,3.30
2023-02-12T22:27:52.212Z,3.30
2023-02-12T22:30:23.882Z,3.30
2023-02-12T22:32:55.553Z,3.40
2023-02-12T22:35:27.312Z,3.40
2023-02-12T22:37:59.004Z,3.30
2023-02-12T22:40:30.757Z,3.30
2023-02-12T22:43:02.432Z,3.30
2023-02-12T22:45:34.277Z,3.30
2023-02-12T22:48:06.016Z,3.30
2023-02-12T22:50:40.552Z,3.30
2023-02-12T22:53:12.577Z,3.20
2023-02-12T22:55:44.281Z,3.10
2023-02-12T22:58:16.596Z,3.10
2023-02-12T23:00:48.338Z,3.00
2023-02-12T23:03:20.055Z,3.00
2023-02-12T23:05:51.766Z,2.90
2023-02-12T23:08:23.472Z,2.90
2023-02-12T23:10:55.778Z,2.80
2023-02-12T23:13:30.011Z,2.80
2023-02-12T23:16:02.511Z,2.80
2023-02-12T23:18:34.280Z,2.80
2023-02-12T23:21:06.125Z,2.70
2023-02-12T23:23:37.874Z,2.70
2023-02-12T23:26:09.556Z,2.70
2023-02-12T23:28:41.439Z,2.60
2023-02-12T23:31:13.709Z,2.60
2023-02-12T23:33:45.658Z,2.60
2023-02-12T23:36:17.478Z,2.60
2023-02-12T23:38:49.333Z,2.60
2023-02-12T23:41:21.108Z,2.60
2023-02-12T23:43:52.788Z,2.60
2023-02-12T23:46:24.728Z,2.60
2023-02-12T23:48:56.516Z,2.50
2023-02-12T23:51:28.672Z,2.60
2023-02-12T23:54:01.131Z,2.60
2023-02-12T23:56:32.919Z,2.60
2023-02-12T23:59:05.016Z,2.50
